Time;durP1;ratioP1;P1;durP2;ratioP2;P2;SDS_P1;SDS_P2;PMS_P1;PMS_P2;Temp;Humidity;BMP_temperature;BMP_pressure;BME280_temperature;BME280_humidity;BME280_pressure;Samples;Min_cycle;Max_cycle;Signal;HPM_P1;HPM_P2
2022/03/04 00:02:06;;;;;;;128.40;63.00;;;;;;;;;;4463000;32;20260;-55
2022/03/04 00:04:37;;;;;;;91.90;48.23;;;;;;;;;;4462918;32;20270;-55
2022/03/04 00:07:03;;;;;;;90.03;49.07;;;;;;;;;;4463067;32;20207;-54
2022/03/04 00:09:28;;;;;;;113.43;49.90;;;;;;;;;;4448846;32;20232;-56
2022/03/04 00:11:54;;;;;;;116.90;56.67;;;;;;;;;;4463030;32;20652;-54
2022/03/04 00:14:20;;;;;;;105.37;53.47;;;;;;;;;;4463096;32;20224;-55
2022/03/04 00:16:46;;;;;;;102.03;50.07;;;;;;;;;;4463058;32;20357;-55
2022/03/04 00:19:11;;;;;;;113.27;51.40;;;;;;;;;;4448487;32;20239;-54
2022/03/04 00:21:39;;;;;;;95.57;47.00;;;;;;;;;;4447249;32;20668;-54
2022/03/04 00:24:06;;;;;;;111.90;46.67;;;;;;;;;;4447223;32;20402;-55
2022/03/04 00:26:32;;;;;;;79.57;40.27;;;;;;;;;;4445926;32;20236;-55
2022/03/04 00:28:58;;;;;;;97.37;43.40;;;;;;;;;;4447331;32;20232;-55
2022/03/04 00:31:24;;;;;;;92.60;41.53;;;;;;;;;;4445944;32;20390;-55
2022/03/04 00:33:50;;;;;;;87.53;42.83;;;;;;;;;;4447213;32;20228;-55
2022/03/04 00:36:16;;;;;;;85.30;42.17;;;;;;;;;;4447523;32;20271;-56
2022/03/04 00:38:42;;;;;;;97.30;44.70;;;;;;;;;;4460333;32;20315;-54
2022/03/04 00:41:07;;;;;;;94.00;46.93;;;;;;;;;;4462704;32;20620;-54
2022/03/04 00:43:32;;;;;;;111.37;46.43;;;;;;;;;;4462660;32;20264;-55
2022/03/04 00:45:59;;;;;;;97.40;49.63;;;;;;;;;;4461998;32;20250;-55
2022/03/04 00:48:24;;;;;;;103.80;50.13;;;;;;;;;;4462644;32;20347;-55
2022/03/04 00:50:50;;;;;;;96.33;48.60;;;;;;;;;;4463496;32;20208;-54
2022/03/04 00:53:15;;;;;;;98.83;48.77;;;;;;;;;;4466072;32;20642;-54
2022/03/04 00:55:40;;;;;;;95.47;44.80;;;;;;;;;;4465948;32;20359;-55
2022/03/04 00:58:07;;;;;;;91.00;47.00;;;;;;;;;;4451511;32;20307;-56
2022/03/04 01:00:34;;;;;;;93.73;47.47;;;;;;;;;;4465636;32;20254;-55
2022/03/04 01:03:01;;;;;;;108.50;52.13;;;;;;;;;;4465725;32;20220;-55
2022/03/04 01:05:26;;;;;;;99.87;48.07;;;;;;;;;;4466048;32;20228;-54
2022/03/04 01:07:52;;;;;;;99.10;46.50;;;;;;;;;;4457325;32;20571;-55
2022/03/04 01:10:17;;;;;;;89.97;46.97;;;;;;;;;;4449863;32;20221;-55
2022/03/04 01:12:43;;;;;;;92.73;46.07;;;;;;;;;;4449948;32;20280;-55
2022/03/04 01:15:09;;;;;;;100.10;50.33;;;;;;;;;;4449514;32;20309;-55
2022/03/04 01:17:35;;;;;;;117.50;50.57;;;;;;;;;;4450061;32;20280;-55
2022/03/04 01:20:02;;;;;;;102.30;54.57;;;;;;;;;;4441063;32;20265;-54
2022/03/04 01:22:27;;;;;;;110.43;53.87;;;;;;;;;;4465588;32;20197;-55
2022/03/04 01:24:53;;;;;;;101.57;53.27;;;;;;;;;;4458221;32;20660;-54
2022/03/04 01:27:19;;;;;;;95.80;45.20;;;;;;;;;;4449771;32;20274;-54
2022/03/04 01:29:45;;;;;;;83.03;37.77;;;;;;;;;;4449772;32;20228;-56
2022/03/04 01:32:10;;;;;;;61.80;33.20;;;;;;;;;;4449594;32;20670;-55
2022/03/04 01:34:36;;;;;;;59.87;31.47;;;;;;;;;;4435691;32;20308;-54
2022/03/04 01:37:01;;;;;;;68.57;31.50;;;;;;;;;;4449689;32;20387;-54
2022/03/04 01:39:27;;;;;;;69.03;29.57;;;;;;;;;;4449518;32;20235;-55
2022/03/04 01:41:53;;;;;;;48.87;26.07;;;;;;;;;;4449431;32;20287;-55
2022/03/04 01:44:19;;;;;;;64.03;29.00;;;;;;;;;;4449485;32;20273;-54
2022/03/04 01:46:45;;;;;;;69.90;30.37;;;;;;;;;;4449430;32;20256;-57
2022/03/04 01:49:10;;;;;;;82.63;33.17;;;;;;;;;;4449412;32;20324;-58
2022/03/04 01:51:36;;;;;;;76.07;33.93;;;;;;;;;;4449786;32;20271;-56
2022/03/04 01:54:02;;;;;;;87.77;42.53;;;;;;;;;;4449206;32;20298;-55
2022/03/04 01:56:28;;;;;;;121.43;49.53;;;;;;;;;;4449387;32;20263;-55
2022/03/04 01:58:53;;;;;;;125.10;53.50;;;;;;;;;;4448968;32;20295;-55
2022/03/04 02:01:20;;;;;;;114.17;52.10;;;;;;;;;;4449173;32;20629;-55
2022/03/04 02:03:46;;;;;;;125.47;56.33;;;;;;;;;;4449296;32;20247;-54
2022/03/04 02:06:11;;;;;;;108.53;50.97;;;;;;;;;;4435266;32;20781;-55
2022/03/04 02:08:37;;;;;;;100.73;51.00;;;;;;;;;;4449334;32;20260;-55
2022/03/04 02:11:03;;;;;;;107.83;51.47;;;;;;;;;;4449049;32;20220;-54
2022/03/04 02:13:28;;;;;;;100.70;43.50;;;;;;;;;;4449221;32;20319;-55
2022/03/04 02:15:53;;;;;;;91.77;42.33;;;;;;;;;;4453848;32;20196;-55
2022/03/04 02:18:19;;;;;;;83.53;39.97;;;;;;;;;;4464554;32;20335;-54
2022/03/04 02:20:49;;;;;;;79.97;39.87;;;;;;;;;;4464568;32;20238;-55
2022/03/04 02:23:17;;;;;;;87.27;39.50;;;;;;;;;;4464580;32;20330;-54
2022/03/04 02:25:48;;;;;;;83.80;44.67;;;;;;;;;;4464452;32;20232;-55
2022/03/04 02:28:14;;;;;;;90.80;42.63;;;;;;;;;;4464858;32;20217;-55
2022/03/04 02:30:40;;;;;;;94.50;42.90;;;;;;;;;;4464173;32;20402;-56
2022/03/04 02:33:07;;;;;;;83.20;41.03;;;;;;;;;;4464198;32;20334;-55
2022/03/04 02:35:34;;;;;;;71.73;38.10;;;;;;;;;;4464265;32;20250;-55
2022/03/04 02:37:59;;;;;;;70.30;34.87;;;;;;;;;;4464403;32;20189;-56
2022/03/04 02:40:25;;;;;;;83.70;38.17;;;;;;;;;;4464153;32;20532;-55
2022/03/04 02:42:51;;;;;;;68.33;34.47;;;;;;;;;;4464159;32;20283;-55
2022/03/04 02:45:17;;;;;;;71.10;36.33;;;;;;;;;;4464016;32;20509;-55
2022/03/04 02:47:43;;;;;;;73.33;32.50;;;;;;;;;;4464175;32;20442;-54
2022/03/04 02:50:09;;;;;;;61.23;32.77;;;;;;;;;;4449627;32;20248;-55
2022/03/04 02:52:35;;;;;;;59.83;31.40;;;;;;;;;;4463462;32;20267;-57
2022/03/04 02:55:00;;;;;;;45.73;28.67;;;;;;;;;;4449027;32;20607;-55
2022/03/04 02:57:26;;;;;;;59.23;28.30;;;;;;;;;;4464030;32;20267;-53
2022/03/04 02:59:51;;;;;;;50.53;24.73;;;;;;;;;;4463647;32;20401;-56
2022/03/04 03:02:17;;;;;;;49.43;27.50;;;;;;;;;;4464052;32;20364;-56
2022/03/04 03:04:42;;;;;;;57.47;29.47;;;;;;;;;;4463801;32;20608;-54
2022/03/04 03:07:08;;;;;;;81.87;39.50;;;;;;;;;;4464039;32;20420;-54
2022/03/04 03:09:34;;;;;;;77.30;36.10;;;;;;;;;;4463758;32;20705;-55
2022/03/04 03:12:00;;;;;;;87.87;39.03;;;;;;;;;;4463406;32;20291;-56
2022/03/04 03:14:25;;;;;;;86.53;42.43;;;;;;;;;;4449091;32;20303;-55
2022/03/04 03:16:51;;;;;;;76.93;37.20;;;;;;;;;;4449149;32;20358;-55
2022/03/04 03:19:16;;;;;;;81.60;37.63;;;;;;;;;;4462950;32;20347;-55
2022/03/04 03:21:42;;;;;;;67.50;35.87;;;;;;;;;;4448356;32;20275;-55
2022/03/04 03:24:08;;;;;;;73.60;40.53;;;;;;;;;;4448156;32;20688;-56
2022/03/04 03:26:33;;;;;;;81.20;38.63;;;;;;;;;;4448102;32;20273;-55
2022/03/04 03:28:59;;;;;;;72.37;38.37;;;;;;;;;;4447809;32;20232;-55
2022/03/04 03:31:24;;;;;;;85.57;43.17;;;;;;;;;;4447990;32;20259;-55
2022/03/04 03:33:50;;;;;;;78.17;41.83;;;;;;;;;;4446764;32;20248;-55
2022/03/04 03:36:15;;;;;;;81.30;38.53;;;;;;;;;;4448054;32;20287;-55
2022/03/04 03:38:41;;;;;;;87.10;41.00;;;;;;;;;;4446723;32;20220;-54
2022/03/04 03:41:06;;;;;;;72.93;38.17;;;;;;;;;;4447605;32;20207;-55
2022/03/04 03:43:32;;;;;;;77.77;39.53;;;;;;;;;;4447866;32;20341;-56
2022/03/04 03:45:57;;;;;;;75.73;38.37;;;;;;;;;;4447615;32;20612;-54
2022/03/04 03:48:22;;;;;;;73.27;37.60;;;;;;;;;;4447839;32;20488;-54
2022/03/04 03:50:48;;;;;;;80.60;35.77;;;;;;;;;;4447771;32;20588;-55
2022/03/04 03:53:13;;;;;;;79.37;36.27;;;;;;;;;;4447527;32;20288;-55
2022/03/04 03:55:39;;;;;;;72.60;35.47;;;;;;;;;;4447580;32;20227;-55
2022/03/04 03:58:05;;;;;;;70.17;34.93;;;;;;;;;;4447252;32;20661;-57
2022/03/04 04:00:31;;;;;;;84.70;38.27;;;;;;;;;;4447278;32;20781;-55
2022/03/04 04:02:56;;;;;;;91.67;41.77;;;;;;;;;;4447376;32;20372;-56
2022/03/04 04:05:22;;;;;;;117.80;56.40;;;;;;;;;;4446457;32;20244;-55
2022/03/04 04:07:47;;;;;;;144.73;72.70;;;;;;;;;;4447468;32;20374;-56
2022/03/04 04:10:13;;;;;;;308.30;142.77;;;;;;;;;;4462949;32;20217;-54
2022/03/04 04:12:39;;;;;;;201.83;86.87;;;;;;;;;;4463195;32;20299;-55
2022/03/04 04:15:06;;;;;;;133.73;63.60;;;;;;;;;;4462673;32;20323;-55
2022/03/04 04:17:31;;;;;;;125.97;59.20;;;;;;;;;;4447183;32;20370;-55
2022/03/04 04:19:57;;;;;;;116.80;51.10;;;;;;;;;;4447017;32;20268;-55
2022/03/04 04:22:22;;;;;;;125.60;56.20;;;;;;;;;;4447667;32;20264;-56
2022/03/04 04:24:48;;;;;;;111.97;56.50;;;;;;;;;;4447366;32;20632;-55
2022/03/04 04:27:13;;;;;;;120.70;58.23;;;;;;;;;;4447302;32;20237;-56
2022/03/04 04:29:39;;;;;;;141.70;62.00;;;;;;;;;;4447147;32;20952;-56
2022/03/04 04:32:04;;;;;;;116.43;59.80;;;;;;;;;;4447238;32;20275;-56
2022/03/04 04:34:30;;;;;;;109.07;56.87;;;;;;;;;;4433558;32;20773;-56
2022/03/04 04:36:56;;;;;;;116.43;53.90;;;;;;;;;;4447171;32;20650;-58
2022/03/04 04:39:21;;;;;;;105.90;52.83;;;;;;;;;;4447773;32;20557;-55
2022/03/04 04:41:47;;;;;;;111.43;53.13;;;;;;;;;;4447384;32;20326;-56
2022/03/04 04:44:12;;;;;;;100.23;46.87;;;;;;;;;;4445663;32;20252;-55
2022/03/04 04:46:38;;;;;;;111.67;51.87;;;;;;;;;;4446166;32;20291;-57
2022/03/04 04:49:03;;;;;;;96.87;50.53;;;;;;;;;;4447167;32;20298;-55
2022/03/04 04:51:29;;;;;;;93.97;46.43;;;;;;;;;;4447545;32;20298;-56
2022/03/04 04:53:54;;;;;;;92.83;46.63;;;;;;;;;;4445708;32;20317;-55
2022/03/04 04:56:21;;;;;;;113.27;52.43;;;;;;;;;;4447312;32;20267;-55
2022/03/04 04:58:46;;;;;;;97.37;49.67;;;;;;;;;;4445718;32;20372;-55
2022/03/04 05:01:12;;;;;;;96.27;50.60;;;;;;;;;;4445396;32;20750;-55
2022/03/04 05:03:38;;;;;;;112.43;52.77;;;;;;;;;;4447447;32;20245;-55
2022/03/04 05:06:03;;;;;;;108.83;49.93;;;;;;;;;;4461238;32;20586;-54
2022/03/04 05:08:29;;;;;;;108.03;53.20;;;;;;;;;;4448806;32;20701;-55
2022/03/04 05:10:56;;;;;;;127.27;59.23;;;;;;;;;;4462297;32;20687;-55
2022/03/04 05:13:22;;;;;;;109.53;53.60;;;;;;;;;;4462845;32;20264;-56
2022/03/04 05:15:48;;;;;;;117.87;53.57;;;;;;;;;;4457479;32;20230;-55
2022/03/04 05:18:14;;;;;;;97.33;50.47;;;;;;;;;;4433138;32;20655;-55
2022/03/04 05:20:39;;;;;;;108.67;45.47;;;;;;;;;;4446778;32;20217;-55
2022/03/04 05:23:05;;;;;;;93.43;45.57;;;;;;;;;;4446887;32;20795;-56
2022/03/04 05:25:30;;;;;;;103.80;51.97;;;;;;;;;;4447052;32;20423;-55
2022/03/04 05:27:56;;;;;;;100.47;52.17;;;;;;;;;;4432536;32;20344;-56
2022/03/04 05:30:22;;;;;;;103.83;45.00;;;;;;;;;;4447030;32;20708;-55
2022/03/04 05:32:47;;;;;;;95.27;45.50;;;;;;;;;;4446971;32;20725;-55
2022/03/04 05:35:13;;;;;;;93.40;49.83;;;;;;;;;;4432447;32;20326;-56
2022/03/04 05:37:39;;;;;;;103.80;58.17;;;;;;;;;;4448283;32;20366;-57
2022/03/04 05:40:05;;;;;;;123.73;58.53;;;;;;;;;;4448853;32;20376;-56
2022/03/04 05:42:31;;;;;;;126.67;65.60;;;;;;;;;;4435748;32;20259;-56
2022/03/04 05:44:57;;;;;;;115.17;58.17;;;;;;;;;;4449157;32;20221;-56
2022/03/04 05:47:23;;;;;;;95.63;50.50;;;;;;;;;;4434705;32;20283;-57
2022/03/04 05:49:48;;;;;;;114.23;54.00;;;;;;;;;;4449702;32;20315;-56
2022/03/04 05:52:14;;;;;;;142.67;68.27;;;;;;;;;;4435398;32;20300;-55
2022/03/04 05:54:39;;;;;;;117.47;57.13;;;;;;;;;;4449598;32;20791;-56
2022/03/04 05:57:06;;;;;;;86.67;46.10;;;;;;;;;;4449714;32;20638;-55
2022/03/04 05:59:32;;;;;;;67.83;39.57;;;;;;;;;;4449156;32;20292;-56
2022/03/04 06:01:57;;;;;;;65.07;37.93;;;;;;;;;;4460441;32;20318;-57
2022/03/04 06:04:23;;;;;;;47.33;27.27;;;;;;;;;;4464598;32;20742;-56
2022/03/04 06:06:48;;;;;;;48.33;22.83;;;;;;;;;;4450574;32;20671;-56
2022/03/04 06:09:14;;;;;;;40.50;21.93;;;;;;;;;;4464820;32;20224;-55
2022/03/04 06:11:40;;;;;;;35.97;22.43;;;;;;;;;;4464844;32;20340;-56
2022/03/04 06:14:06;;;;;;;48.00;25.73;;;;;;;;;;4464638;32;20296;-56
2022/03/04 06:16:32;;;;;;;58.50;29.77;;;;;;;;;;4446790;32;20287;-55
2022/03/04 06:18:58;;;;;;;48.87;25.67;;;;;;;;;;4448771;32;20248;-55
2022/03/04 06:21:24;;;;;;;47.83;29.50;;;;;;;;;;4448580;32;20256;-57
2022/03/04 06:23:49;;;;;;;65.43;30.03;;;;;;;;;;4448636;32;20672;-55
2022/03/04 06:26:15;;;;;;;55.50;30.13;;;;;;;;;;4448665;32;20354;-55
2022/03/04 06:28:40;;;;;;;64.10;30.33;;;;;;;;;;4448988;32;20267;-56
2022/03/04 06:31:06;;;;;;;68.20;36.93;;;;;;;;;;4448933;32;20372;-56
2022/03/04 06:33:32;;;;;;;73.37;38.03;;;;;;;;;;4448981;32;20777;-55
2022/03/04 06:36:10;;;;;;;68.33;36.37;;;;;;;;;;4448315;32;20220;-58
2022/03/04 06:38:38;;;;;;;67.97;36.53;;;;;;;;;;4448858;32;20271;-57
2022/03/04 06:41:04;;;;;;;74.33;36.33;;;;;;;;;;4448396;32;20196;-55
2022/03/04 06:43:30;;;;;;;91.27;47.07;;;;;;;;;;4447092;32;20357;-56
2022/03/04 06:45:56;;;;;;;80.30;40.87;;;;;;;;;;4454726;32;20203;-56
2022/03/04 06:48:22;;;;;;;63.50;34.77;;;;;;;;;;4448943;32;20360;-55
2022/03/04 06:50:49;;;;;;;47.13;26.80;;;;;;;;;;4448297;32;20225;-56
2022/03/04 06:53:14;;;;;;;49.00;27.73;;;;;;;;;;4447972;32;20221;-55
2022/03/04 06:55:40;;;;;;;40.87;24.17;;;;;;;;;;4448171;32;20196;-56
2022/03/04 06:58:06;;;;;;;56.17;24.80;;;;;;;;;;4448454;32;20654;-56
2022/03/04 07:00:31;;;;;;;35.77;23.70;;;;;;;;;;4463335;32;20291;-56
2022/03/04 07:02:57;;;;;;;49.67;26.33;;;;;;;;;;4463161;32;20407;-56
2022/03/04 07:05:23;;;;;;;51.93;28.47;;;;;;;;;;4449377;32;20289;-55
2022/03/04 07:07:53;;;;;;;46.63;27.47;;;;;;;;;;4449139;32;20381;-55
2022/03/04 07:10:19;;;;;;;65.17;29.43;;;;;;;;;;4448982;32;20585;-55
2022/03/04 07:12:45;;;;;;;51.03;26.77;;;;;;;;;;4462978;32;20298;-55
2022/03/04 07:15:11;;;;;;;43.87;28.07;;;;;;;;;;4461500;32;20336;-58
2022/03/04 07:17:37;;;;;;;50.40;27.70;;;;;;;;;;4447909;32;20354;-56
2022/03/04 07:20:03;;;;;;;39.77;24.13;;;;;;;;;;4438565;32;20703;-56
2022/03/04 07:22:29;;;;;;;44.40;22.27;;;;;;;;;;4463184;32;20461;-56
2022/03/04 07:24:54;;;;;;;35.03;21.20;;;;;;;;;;4463070;32;20219;-57
2022/03/04 07:27:20;;;;;;;42.67;28.13;;;;;;;;;;4463312;32;20295;-56
2022/03/04 07:29:46;;;;;;;61.63;32.90;;;;;;;;;;4463001;32;20281;-55
2022/03/04 07:32:11;;;;;;;44.07;24.10;;;;;;;;;;4462583;32;20305;-58
2022/03/04 07:34:37;;;;;;;42.17;24.53;;;;;;;;;;4463165;32;20254;-54
2022/03/04 07:37:02;;;;;;;47.13;25.07;;;;;;;;;;4463302;32;20568;-57
2022/03/04 07:39:28;;;;;;;53.63;28.87;;;;;;;;;;4463155;32;20417;-57
2022/03/04 07:41:53;;;;;;;41.30;25.30;;;;;;;;;;4462871;32;20282;-56
2022/03/04 07:44:19;;;;;;;51.47;31.80;;;;;;;;;;4463114;32;20248;-55
2022/03/04 07:46:45;;;;;;;64.93;35.60;;;;;;;;;;4462884;32;20283;-55
2022/03/04 07:49:11;;;;;;;75.67;39.00;;;;;;;;;;4462466;32;20814;-58
2022/03/04 07:51:37;;;;;;;50.87;27.80;;;;;;;;;;4448045;32;20303;-57
2022/03/04 07:54:02;;;;;;;50.53;28.90;;;;;;;;;;4462408;32;20298;-57
2022/03/04 07:56:28;;;;;;;49.10;29.47;;;;;;;;;;4462869;32;20738;-56
2022/03/04 07:58:53;;;;;;;43.77;26.10;;;;;;;;;;4462140;32;20318;-55
2022/03/04 08:01:19;;;;;;;55.83;28.67;;;;;;;;;;4462439;32;20420;-56
2022/03/04 08:03:46;;;;;;;43.83;25.90;;;;;;;;;;4463368;32;20251;-55
2022/03/04 08:06:12;;;;;;;50.33;29.80;;;;;;;;;;4462176;32;20414;-54
2022/03/04 08:08:37;;;;;;;59.20;27.97;;;;;;;;;;4462339;32;20542;-55
2022/03/04 08:11:03;;;;;;;53.80;29.23;;;;;;;;;;4461879;32;20209;-56
2022/03/04 08:13:28;;;;;;;144.17;64.77;;;;;;;;;;4461960;32;20259;-55
2022/03/04 08:15:54;;;;;;;71.13;35.87;;;;;;;;;;4460600;32;20212;-55
2022/03/04 08:18:20;;;;;;;60.47;32.33;;;;;;;;;;4462563;32;20345;-54
2022/03/04 08:20:45;;;;;;;56.90;29.67;;;;;;;;;;4452327;32;20240;-56
2022/03/04 08:23:11;;;;;;;52.13;31.37;;;;;;;;;;4446978;32;20276;-57
2022/03/04 08:25:38;;;;;;;80.63;41.03;;;;;;;;;;4446718;32;20224;-55
2022/03/04 08:28:04;;;;;;;79.33;41.23;;;;;;;;;;4446620;32;20635;-56
2022/03/04 08:30:30;;;;;;;63.90;32.77;;;;;;;;;;4446858;32;20307;-56
2022/03/04 08:32:56;;;;;;;161.77;81.37;;;;;;;;;;4446694;32;20279;-55
2022/03/04 08:35:21;;;;;;;78.53;40.10;;;;;;;;;;4447170;32;20999;-55
2022/03/04 08:37:47;;;;;;;92.33;47.40;;;;;;;;;;4445827;32;20311;-55
2022/03/04 08:40:13;;;;;;;75.53;38.57;;;;;;;;;;4446603;32;20396;-56
2022/03/04 08:42:40;;;;;;;52.20;28.00;;;;;;;;;;4446746;32;20294;-56
2022/03/04 08:45:07;;;;;;;49.90;26.00;;;;;;;;;;4446257;32;20274;-55
2022/03/04 08:47:32;;;;;;;54.63;26.13;;;;;;;;;;4447206;32;20288;-56
2022/03/04 08:49:58;;;;;;;45.43;24.33;;;;;;;;;;4439899;32;20356;-56
2022/03/04 08:52:24;;;;;;;62.37;32.93;;;;;;;;;;4446246;32;20577;-55
2022/03/04 08:54:49;;;;;;;27.87;17.77;;;;;;;;;;4446301;32;20660;-57
2022/03/04 08:57:15;;;;;;;33.63;18.23;;;;;;;;;;4446386;32;20267;-57
2022/03/04 08:59:41;;;;;;;37.53;20.50;;;;;;;;;;4431760;32;20592;-56
2022/03/04 09:02:07;;;;;;;30.23;17.33;;;;;;;;;;4432563;32;20755;-58
2022/03/04 09:04:32;;;;;;;34.83;18.03;;;;;;;;;;4432248;32;20311;-57
2022/03/04 09:06:58;;;;;;;30.70;16.87;;;;;;;;;;4446139;32;20405;-57
2022/03/04 09:09:24;;;;;;;56.97;31.50;;;;;;;;;;4432155;32;20613;-56
2022/03/04 09:11:50;;;;;;;41.20;18.00;;;;;;;;;;4447422;32;20868;-57
2022/03/04 09:14:17;;;;;;;34.67;18.53;;;;;;;;;;4449342;32;20221;-57
2022/03/04 09:16:43;;;;;;;21.67;14.10;;;;;;;;;;4449334;32;20236;-56
2022/03/04 09:19:08;;;;;;;40.73;21.57;;;;;;;;;;4449610;32;20354;-56
2022/03/04 09:21:34;;;;;;;34.63;17.63;;;;;;;;;;4449484;32;20369;-56
2022/03/04 09:24:00;;;;;;;25.63;14.27;;;;;;;;;;4451096;32;20215;-57
2022/03/04 09:26:27;;;;;;;22.37;12.83;;;;;;;;;;4450678;32;20355;-57
2022/03/04 09:28:53;;;;;;;24.87;13.57;;;;;;;;;;4464586;32;20366;-54
2022/03/04 09:31:18;;;;;;;48.20;22.97;;;;;;;;;;4450813;32;20631;-56
2022/03/04 09:33:44;;;;;;;33.93;19.87;;;;;;;;;;4465555;32;20236;-55
2022/03/04 09:36:12;;;;;;;23.30;14.37;;;;;;;;;;4465057;32;20232;-56
2022/03/04 09:38:38;;;;;;;17.57;11.00;;;;;;;;;;4464835;32;20331;-56
2022/03/04 09:41:05;;;;;;;19.17;11.10;;;;;;;;;;4464492;32;20640;-56
2022/03/04 09:43:30;;;;;;;17.17;11.67;;;;;;;;;;4464948;32;20239;-56
2022/03/04 09:45:56;;;;;;;22.57;12.37;;;;;;;;;;4449850;32;20296;-56
2022/03/04 09:48:23;;;;;;;24.97;12.93;;;;;;;;;;4465234;32;20461;-55
2022/03/04 09:50:49;;;;;;;22.80;13.43;;;;;;;;;;4464591;32;20239;-55
2022/03/04 09:53:15;;;;;;;27.13;15.30;;;;;;;;;;4464692;32;20537;-57
2022/03/04 09:55:42;;;;;;;21.87;11.93;;;;;;;;;;4450970;32;20244;-56
2022/03/04 09:58:18;;;;;;;23.17;11.70;;;;;;;;;;4464493;32;20208;-56
2022/03/04 10:00:45;;;;;;;14.63;10.37;;;;;;;;;;4464601;32;20215;-56
2022/03/04 10:03:29;;;;;;;18.73;10.10;;;;;;;;;;4464761;32;20243;-56
2022/03/04 10:05:57;;;;;;;19.10;12.60;;;;;;;;;;4464475;32;20687;-57
2022/03/04 10:08:23;;;;;;;23.90;13.43;;;;;;;;;;4464477;32;20287;-56
2022/03/04 10:10:53;;;;;;;24.67;12.93;;;;;;;;;;4463799;32;20567;-57
2022/03/04 10:13:49;;;;;;;19.53;13.33;;;;;;;;;;4465148;32;20197;-56
2022/03/04 10:16:41;;;;;;;21.97;12.13;;;;;;;;;;4436675;32;20255;-55
2022/03/04 10:19:11;;;;;;;19.57;13.53;;;;;;;;;;4462465;32;20236;-56
2022/03/04 10:21:48;;;;;;;25.27;15.33;;;;;;;;;;4447871;32;20275;-56
2022/03/04 10:24:15;;;;;;;19.73;10.60;;;;;;;;;;4448823;32;20771;-57
2022/03/04 10:26:41;;;;;;;16.33;10.73;;;;;;;;;;4448517;32;20301;-56
2022/03/04 10:29:23;;;;;;;24.07;13.03;;;;;;;;;;4448547;32;20565;-56
2022/03/04 10:32:11;;;;;;;15.63;9.80;;;;;;;;;;4449209;32;20252;-55
2022/03/04 10:35:01;;;;;;;17.97;11.30;;;;;;;;;;4448676;32;20231;-56
2022/03/04 10:37:56;;;;;;;13.63;9.47;;;;;;;;;;4434532;32;20237;-55
2022/03/04 10:40:26;;;;;;;12.33;9.73;;;;;;;;;;4448563;32;20332;-56
2022/03/04 10:43:05;;;;;;;19.10;9.53;;;;;;;;;;4458096;32;20684;-57
2022/03/04 10:46:04;;;;;;;15.57;10.83;;;;;;;;;;4464311;32;20322;-56
2022/03/04 10:48:31;;;;;;;16.47;11.67;;;;;;;;;;4464185;32;20513;-56
2022/03/04 10:51:03;;;;;;;21.77;9.13;;;;;;;;;;4449614;32;20235;-56
2022/03/04 10:53:31;;;;;;;12.73;8.63;;;;;;;;;;4449410;32;20264;-55
2022/03/04 10:56:04;;;;;;;15.93;10.43;;;;;;;;;;4463513;32;20571;-56
2022/03/04 10:58:33;;;;;;;19.10;12.20;;;;;;;;;;4463972;32;20204;-55
2022/03/04 11:01:05;;;;;;;14.73;10.73;;;;;;;;;;4463607;32;20223;-56
2022/03/04 11:03:33;;;;;;;12.83;8.37;;;;;;;;;;4450013;32;20580;-57
2022/03/04 11:06:04;;;;;;;13.67;7.23;;;;;;;;;;4463460;32;20209;-55
2022/03/04 11:08:30;;;;;;;17.30;7.63;;;;;;;;;;4464054;32;20231;-56
2022/03/04 11:10:57;;;;;;;24.57;12.90;;;;;;;;;;4463489;32;20280;-56
2022/03/04 11:13:23;;;;;;;15.13;9.57;;;;;;;;;;4463904;32;20207;-55
2022/03/04 11:15:50;;;;;;;11.97;7.20;;;;;;;;;;4458385;32;20216;-56
2022/03/04 11:18:18;;;;;;;6.90;5.63;;;;;;;;;;4434378;32;20630;-55
2022/03/04 11:20:47;;;;;;;19.70;7.23;;;;;;;;;;4448128;32;20247;-56
2022/03/04 11:23:21;;;;;;;40.17;19.83;;;;;;;;;;4448191;32;20347;-56
2022/03/04 11:25:59;;;;;;;30.67;12.80;;;;;;;;;;4448556;32;20222;-56
2022/03/04 11:28:48;;;;;;;14.73;9.80;;;;;;;;;;4447205;32;20236;-57
2022/03/04 11:31:16;;;;;;;90.00;40.67;;;;;;;;;;4447731;32;20238;-54
2022/03/04 11:33:51;;;;;;;21.23;11.77;;;;;;;;;;4447444;32;20260;-55
2022/03/04 11:36:18;;;;;;;15.87;11.07;;;;;;;;;;4447685;32;20261;-56
2022/03/04 11:38:46;;;;;;;41.53;19.37;;;;;;;;;;4455149;32;20290;-56
2022/03/04 11:41:27;;;;;;;37.40;18.87;;;;;;;;;;4448949;32;20852;-56
2022/03/04 11:43:58;;;;;;;17.03;10.10;;;;;;;;;;4463322;32;20405;-56
2022/03/04 11:46:29;;;;;;;18.80;12.23;;;;;;;;;;4463416;32;20262;-56
2022/03/04 11:49:22;;;;;;;51.07;19.13;;;;;;;;;;4463476;32;20232;-58
2022/03/04 11:52:11;;;;;;;35.97;17.07;;;;;;;;;;4463612;32;20259;-55
2022/03/04 11:54:39;;;;;;;42.00;15.83;;;;;;;;;;4463020;32;20247;-56
2022/03/04 11:57:17;;;;;;;19.37;13.07;;;;;;;;;;4448847;32;20240;-55
2022/03/04 11:59:52;;;;;;;16.57;10.63;;;;;;;;;;4463038;32;20323;-57
2022/03/04 12:02:19;;;;;;;24.03;13.60;;;;;;;;;;4449203;32;20357;-54
2022/03/04 12:04:44;;;;;;;23.27;8.37;;;;;;;;;;4462913;32;20249;-57
2022/03/04 12:07:10;;;;;;;29.83;13.30;;;;;;;;;;4463061;32;20308;-56
2022/03/04 12:09:36;;;;;;;39.30;16.93;;;;;;;;;;4463246;32;20232;-55
2022/03/04 12:12:20;;;;;;;17.03;8.97;;;;;;;;;;4462924;32;20306;-55
2022/03/04 12:14:52;;;;;;;19.07;11.37;;;;;;;;;;4463212;32;20216;-55
2022/03/04 12:17:18;;;;;;;12.90;8.53;;;;;;;;;;4462508;32;20205;-56
2022/03/04 12:19:44;;;;;;;28.33;12.50;;;;;;;;;;4448869;32;20292;-55
2022/03/04 12:22:14;;;;;;;43.90;16.37;;;;;;;;;;4463300;32;20294;-56
2022/03/04 12:24:54;;;;;;;36.57;14.87;;;;;;;;;;4462967;32;20659;-55
2022/03/04 12:27:42;;;;;;;24.37;10.73;;;;;;;;;;4463016;32;20219;-55
2022/03/04 12:30:19;;;;;;;21.63;10.67;;;;;;;;;;4462591;32;20236;-55
2022/03/04 12:32:52;;;;;;;28.30;12.20;;;;;;;;;;4449458;32;20255;-55
2022/03/04 12:35:19;;;;;;;36.60;13.90;;;;;;;;;;4462724;32;20228;-56
2022/03/04 12:37:44;;;;;;;18.70;11.23;;;;;;;;;;4448810;32;20589;-55
2022/03/04 12:40:12;;;;;;;13.27;6.63;;;;;;;;;;4462755;32;20315;-56
2022/03/04 12:42:37;;;;;;;15.23;6.07;;;;;;;;;;4462974;32;20230;-56
2022/03/04 12:45:10;;;;;;;22.83;11.53;;;;;;;;;;4462947;32;20235;-56
2022/03/04 12:47:36;;;;;;;10.17;5.60;;;;;;;;;;4464815;32;20602;-55
2022/03/04 12:50:06;;;;;;;15.03;7.17;;;;;;;;;;4465903;32;20380;-56
2022/03/04 12:52:31;;;;;;;16.17;9.20;;;;;;;;;;4465899;32;20314;-56
2022/03/04 12:55:05;;;;;;;118.77;61.90;;;;;;;;;;4451761;32;20536;-55
2022/03/04 12:57:30;;;;;;;10.97;7.03;;;;;;;;;;4451605;32;20263;-56
2022/03/04 12:59:58;;;;;;;17.60;9.93;;;;;;;;;;4465762;32;20247;-57
2022/03/04 13:02:32;;;;;;;13.60;7.83;;;;;;;;;;4466005;32;20339;-57
2022/03/04 13:04:59;;;;;;;12.37;7.53;;;;;;;;;;4465853;32;20250;-56
2022/03/04 13:07:24;;;;;;;17.47;9.30;;;;;;;;;;4465771;32;20298;-56
2022/03/04 13:09:51;;;;;;;15.17;7.50;;;;;;;;;;4465915;32;21142;-56
2022/03/04 13:12:20;;;;;;;8.27;6.27;;;;;;;;;;4451578;32;20315;-56
2022/03/04 13:14:46;;;;;;;12.47;6.87;;;;;;;;;;4465672;32;20278;-55
2022/03/04 13:17:12;;;;;;;12.57;7.73;;;;;;;;;;4451803;32;20698;-56
2022/03/04 13:19:39;;;;;;;20.70;8.47;;;;;;;;;;4450182;32;20224;-56
2022/03/04 13:22:08;;;;;;;10.73;6.97;;;;;;;;;;4448821;32;20315;-54
2022/03/04 13:25:04;;;;;;;13.97;6.67;;;;;;;;;;4450053;32;20446;-54
2022/03/04 13:27:40;;;;;;;9.23;6.93;;;;;;;;;;4450039;32;20684;-55
2022/03/04 13:30:06;;;;;;;12.23;7.77;;;;;;;;;;4448230;32;20259;-56
2022/03/04 13:32:31;;;;;;;15.60;9.00;;;;;;;;;;4465921;32;20826;-56
2022/03/04 13:34:56;;;;;;;16.93;8.67;;;;;;;;;;4465385;32;20228;-55
2022/03/04 13:37:29;;;;;;;16.53;7.40;;;;;;;;;;4465371;32;20354;-54
2022/03/04 13:40:00;;;;;;;14.33;8.00;;;;;;;;;;4450751;32;20718;-54
2022/03/04 13:42:50;;;;;;;9.83;6.90;;;;;;;;;;4465876;32;20486;-56
2022/03/04 13:45:27;;;;;;;11.23;6.23;;;;;;;;;;4453550;32;20236;-55
2022/03/04 13:47:57;;;;;;;10.10;6.47;;;;;;;;;;4465576;32;20897;-56
2022/03/04 13:50:29;;;;;;;14.37;7.20;;;;;;;;;;4465421;32;20692;-57
2022/03/04 13:53:03;;;;;;;11.03;7.27;;;;;;;;;;4464834;32;20200;-56
2022/03/04 13:55:43;;;;;;;9.07;7.20;;;;;;;;;;4450934;32;20254;-57
2022/03/04 13:58:20;;;;;;;11.57;6.37;;;;;;;;;;4450218;32;20235;-56
2022/03/04 14:00:49;;;;;;;11.80;7.67;;;;;;;;;;4450952;32;20235;-54
2022/03/04 14:03:19;;;;;;;11.87;6.50;;;;;;;;;;4451060;32;20273;-56
2022/03/04 14:05:46;;;;;;;13.90;6.83;;;;;;;;;;4451185;32;20228;-55
2022/03/04 14:08:17;;;;;;;10.53;6.03;;;;;;;;;;4465041;32;20265;-57
2022/03/04 14:10:45;;;;;;;13.07;7.57;;;;;;;;;;4465383;32;20295;-55
2022/03/04 14:13:12;;;;;;;27.27;10.73;;;;;;;;;;4465068;32;20347;-55
2022/03/04 14:15:40;;;;;;;18.23;7.83;;;;;;;;;;4464217;32;20263;-54
2022/03/04 14:18:09;;;;;;;11.40;6.20;;;;;;;;;;4465005;32;20612;-57
2022/03/04 14:20:35;;;;;;;8.00;6.00;;;;;;;;;;4456007;32;20312;-56